Time;durP1;ratioP1;P1;durP2;ratioP2;P2;SDS_P1;SDS_P2;PMS_P1;PMS_P2;Temp;Humidity;BMP_temperature;BMP_pressure;BME280_temperature;BME280_humidity;BME280_pressure;Samples;Min_cycle;Max_cycle;Signal;HPM_P1;HPM_P2
2023/08/21 00:00:55;;;;;;;5.07;3.90;;;19.30;99.90;;;;;;5046266;28;20189;-71
2023/08/21 00:03:21;;;;;;;3.90;3.00;;;19.30;99.90;;;;;;5046505;28;20257;-71
2023/08/21 00:05:47;;;;;;;5.30;3.33;;;19.30;99.90;;;;;;5045415;28;20190;-71
2023/08/21 00:08:13;;;;;;;4.87;4.17;;;19.30;99.90;;;;;;5044726;28;20579;-71
2023/08/21 00:10:38;;;;;;;5.33;4.37;;;19.20;99.90;;;;;;5046626;28;20193;-71
2023/08/21 00:13:05;;;;;;;10.43;4.90;;;19.20;99.90;;;;;;5050473;28;20178;-71
2023/08/21 00:15:31;;;;;;;4.87;4.00;;;19.20;99.90;;;;;;5050578;28;20177;-71
2023/08/21 00:17:57;;;;;;;4.80;3.97;;;19.10;99.90;;;;;;5050414;28;20436;-71
2023/08/21 00:20:22;;;;;;;4.80;3.70;;;19.10;99.90;;;;;;5051214;28;20170;-72
2023/08/21 00:22:48;;;;;;;4.43;4.00;;;19.10;99.90;;;;;;5050806;28;20590;-71
2023/08/21 00:25:14;;;;;;;4.60;3.63;;;19.10;99.90;;;;;;5050786;28;20178;-71
2023/08/21 00:27:40;;;;;;;4.93;3.60;;;19.00;99.90;;;;;;5049555;28;20216;-71
2023/08/21 00:30:06;;;;;;;7.60;4.17;;;19.00;99.90;;;;;;5050086;28;20549;-71
2023/08/21 00:32:31;;;;;;;7.60;4.23;;;18.90;99.90;;;;;;5050893;28;20846;-71
2023/08/21 00:34:57;;;;;;;4.40;3.83;;;18.90;99.90;;;;;;5050591;28;20422;-71
2023/08/21 00:37:23;;;;;;;6.53;4.40;;;18.90;99.90;;;;;;5050276;28;20316;-71
2023/08/21 00:39:49;;;;;;;5.50;4.23;;;18.80;99.90;;;;;;5050429;28;20174;-71
2023/08/21 00:42:14;;;;;;;5.23;3.50;;;18.80;99.90;;;;;;5050799;28;20465;-71
2023/08/21 00:44:40;;;;;;;5.63;4.17;;;18.70;99.90;;;;;;5050281;28;20208;-71
2023/08/21 00:47:06;;;;;;;7.17;3.70;;;18.70;99.90;;;;;;5049816;28;20297;-71
2023/08/21 00:49:32;;;;;;;7.23;3.90;;;18.70;99.90;;;;;;5050601;28;20196;-71
2023/08/21 00:51:59;;;;;;;5.20;3.80;;;18.60;99.90;;;;;;5050303;28;20170;-71
2023/08/21 00:54:25;;;;;;;5.03;3.87;;;18.60;99.90;;;;;;5050357;28;20411;-72
2023/08/21 00:56:52;;;;;;;4.77;3.40;;;18.60;99.90;;;;;;5049470;28;20889;-71
2023/08/21 00:59:22;;;;;;;5.53;3.80;;;18.70;99.90;;;;;;5050306;28;20281;-71
2023/08/21 01:01:47;;;;;;;6.27;3.13;;;18.70;99.90;;;;;;5050118;28;20515;-71
2023/08/21 01:04:13;;;;;;;4.10;3.50;;;18.70;99.90;;;;;;5050103;28;20511;-72
2023/08/21 01:06:39;;;;;;;6.33;3.37;;;18.70;99.90;;;;;;5049410;28;20177;-71
2023/08/21 01:09:11;;;;;;;9.73;3.10;;;18.70;99.90;;;;;;5049879;28;20214;-71
2023/08/21 01:11:51;;;;;;;4.90;2.90;;;18.80;99.90;;;;;;5050594;28;20646;-71
2023/08/21 01:14:22;;;;;;;4.20;3.10;;;18.80;99.90;;;;;;5050295;28;20638;-71
2023/08/21 01:16:53;;;;;;;5.63;3.57;;;18.80;99.90;;;;;;5049303;28;20413;-71
2023/08/21 01:19:41;;;;;;;2.90;2.70;;;18.70;99.90;;;;;;5050288;28;20439;-71
2023/08/21 01:22:06;;;;;;;4.53;2.70;;;18.80;99.90;;;;;;5049013;28;20450;-71
2023/08/21 01:24:33;;;;;;;4.73;2.47;;;18.70;99.90;;;;;;5048819;28;20493;-71
2023/08/21 01:26:58;;;;;;;3.10;2.60;;;18.70;99.90;;;;;;5031665;28;20213;-72
2023/08/21 01:29:25;;;;;;;4.47;2.60;;;18.70;99.90;;;;;;5050448;28;20978;-71
2023/08/21 01:31:58;;;;;;;6.90;2.50;;;18.60;99.90;;;;;;5058588;28;20182;-71
2023/08/21 01:34:26;;;;;;;2.97;2.23;;;18.60;99.90;;;;;;5060687;28;20975;-71
2023/08/21 01:36:52;;;;;;;4.20;2.80;;;18.50;99.90;;;;;;5058244;28;20426;-72
2023/08/21 01:39:18;;;;;;;4.00;2.77;;;18.50;99.90;;;;;;5056057;28;20434;-71
2023/08/21 01:41:44;;;;;;;3.50;2.97;;;18.40;99.90;;;;;;5053647;28;20408;-72
2023/08/21 01:44:09;;;;;;;6.43;3.57;;;18.40;99.90;;;;;;5048530;28;20495;-72
2023/08/21 01:46:35;;;;;;;3.90;3.13;;;18.30;99.90;;;;;;5048732;28;20174;-72
2023/08/21 01:49:01;;;;;;;3.67;2.87;;;18.20;99.90;;;;;;5049486;28;20224;-71
2023/08/21 01:51:26;;;;;;;3.33;2.80;;;18.20;99.90;;;;;;5049705;28;20176;-71
2023/08/21 01:53:52;;;;;;;5.07;2.93;;;18.10;99.90;;;;;;5049290;28;20173;-72
2023/08/21 01:56:18;;;;;;;2.93;2.10;;;18.10;99.90;;;;;;5047409;28;20170;-72
2023/08/21 01:58:43;;;;;;;2.90;2.57;;;18.10;99.90;;;;;;5048253;28;20692;-71
2023/08/21 02:01:09;;;;;;;3.30;2.47;;;18.20;99.90;;;;;;5048617;28;20563;-72
2023/08/21 02:03:35;;;;;;;4.87;2.50;;;18.20;99.90;;;;;;5048886;28;20331;-72
2023/08/21 02:06:01;;;;;;;5.00;2.30;;;18.30;99.90;;;;;;5047516;28;20181;-71
2023/08/21 02:08:31;;;;;;;4.43;2.60;;;18.30;99.90;;;;;;5048312;28;20463;-72
2023/08/21 02:10:57;;;;;;;3.17;2.37;;;18.30;99.90;;;;;;5048733;28;20178;-71
2023/08/21 02:13:23;;;;;;;4.30;2.63;;;18.30;99.90;;;;;;5048903;28;20420;-72
2023/08/21 02:15:49;;;;;;;3.80;2.43;;;18.30;99.90;;;;;;5048427;28;20420;-71
2023/08/21 02:18:15;;;;;;;5.00;3.20;;;18.30;99.90;;;;;;5063488;28;20220;-71
2023/08/21 02:20:41;;;;;;;5.80;2.70;;;18.30;99.90;;;;;;5048709;28;20166;-72
2023/08/21 02:23:06;;;;;;;5.07;3.20;;;18.40;99.90;;;;;;5048607;28;20193;-73
2023/08/21 02:25:32;;;;;;;3.23;3.03;;;18.30;99.90;;;;;;5048351;28;21040;-71
2023/08/21 02:27:58;;;;;;;3.83;2.70;;;18.40;99.90;;;;;;5061964;28;20228;-72
2023/08/21 02:30:25;;;;;;;3.20;2.43;;;18.40;99.90;;;;;;5047722;28;20189;-72
2023/08/21 02:32:54;;;;;;;4.37;2.90;;;18.40;99.90;;;;;;5048530;28;20210;-71
2023/08/21 02:35:22;;;;;;;4.93;3.70;;;18.40;99.90;;;;;;5048041;28;20802;-72
2023/08/21 02:37:48;;;;;;;5.40;3.67;;;18.40;99.90;;;;;;5046608;28;20424;-72
2023/08/21 02:40:13;;;;;;;4.20;2.80;;;18.40;99.90;;;;;;5048161;28;20767;-72
2023/08/21 02:42:39;;;;;;;3.50;3.10;;;18.30;99.90;;;;;;5047286;28;20174;-72
2023/08/21 02:45:08;;;;;;;3.20;2.83;;;18.20;99.90;;;;;;5046281;28;20544;-72
2023/08/21 02:47:43;;;;;;;5.43;3.10;;;18.20;99.90;;;;;;5047508;28;20263;-72
2023/08/21 02:50:10;;;;;;;7.67;4.43;;;18.20;99.90;;;;;;5047964;28;20410;-71
2023/08/21 02:52:36;;;;;;;8.17;3.90;;;18.20;99.90;;;;;;5048264;28;20407;-71
2023/08/21 02:55:03;;;;;;;5.53;3.83;;;18.20;99.90;;;;;;5046007;28;20408;-71
2023/08/21 02:57:29;;;;;;;5.70;4.30;;;18.10;99.90;;;;;;5047586;28;20451;-71
2023/08/21 02:59:55;;;;;;;5.70;3.60;;;18.10;99.90;;;;;;5046177;28;20421;-71
2023/08/21 03:02:21;;;;;;;3.93;2.90;;;18.10;99.90;;;;;;5047887;28;20486;-71
2023/08/21 03:04:48;;;;;;;5.80;3.63;;;18.10;99.90;;;;;;5047748;28;20905;-71
2023/08/21 03:07:14;;;;;;;6.20;3.40;;;18.10;99.90;;;;;;5047272;28;20643;-71
2023/08/21 03:09:40;;;;;;;5.80;3.80;;;18.00;99.90;;;;;;5047982;28;20491;-71
2023/08/21 03:12:07;;;;;;;6.20;3.40;;;18.10;99.90;;;;;;5047813;28;20896;-72
2023/08/21 03:14:33;;;;;;;6.80;3.90;;;18.10;99.90;;;;;;5047709;28;20440;-72
2023/08/21 03:16:58;;;;;;;5.23;3.97;;;18.10;99.90;;;;;;5045435;28;20451;-71
2023/08/21 03:19:24;;;;;;;5.10;3.13;;;18.00;99.90;;;;;;5047602;28;20214;-71
2023/08/21 03:21:50;;;;;;;7.57;4.00;;;18.00;99.90;;;;;;5047801;28;20257;-71
2023/08/21 03:24:15;;;;;;;5.07;2.97;;;18.00;99.90;;;;;;5047303;28;20200;-71
2023/08/21 03:26:41;;;;;;;4.10;3.13;;;18.00;99.90;;;;;;5045598;28;20256;-71
2023/08/21 03:29:07;;;;;;;4.90;3.60;;;18.00;99.90;;;;;;5047196;28;20209;-71
2023/08/21 03:31:32;;;;;;;4.83;3.20;;;17.90;99.90;;;;;;5047468;28;20194;-72
2023/08/21 03:33:58;;;;;;;6.03;4.07;;;17.90;99.90;;;;;;5047726;28;20359;-71
2023/08/21 03:36:33;;;;;;;4.27;3.60;;;17.90;99.90;;;;;;5046419;28;20408;-71
2023/08/21 03:39:00;;;;;;;4.33;3.10;;;17.80;99.90;;;;;;5047702;28;20204;-72
2023/08/21 03:41:26;;;;;;;4.83;3.87;;;17.80;99.90;;;;;;5047282;28;20491;-71
2023/08/21 03:43:51;;;;;;;8.33;3.33;;;17.70;99.90;;;;;;5046165;28;20496;-71
2023/08/21 03:46:17;;;;;;;4.93;3.03;;;17.70;99.90;;;;;;5045722;28;20840;-71
2023/08/21 03:48:43;;;;;;;5.37;4.07;;;17.70;99.90;;;;;;5051046;28;20646;-71
2023/08/21 03:51:08;;;;;;;4.43;3.70;;;17.70;99.90;;;;;;5051666;28;20191;-71
2023/08/21 03:53:34;;;;;;;5.43;3.77;;;17.60;99.90;;;;;;5051326;28;20185;-71
2023/08/21 03:56:00;;;;;;;7.50;3.90;;;17.60;99.90;;;;;;5051102;28;20243;-71
2023/08/21 03:58:26;;;;;;;4.40;3.80;;;17.60;99.90;;;;;;5050539;28;20228;-71
2023/08/21 04:00:53;;;;;;;6.23;4.50;;;17.60;99.90;;;;;;5051088;28;20749;-71
2023/08/21 04:03:19;;;;;;;9.17;4.10;;;17.60;99.90;;;;;;5051597;28;20455;-71
2023/08/21 04:05:44;;;;;;;6.10;4.07;;;17.60;99.90;;;;;;5050813;28;20831;-71
2023/08/21 04:08:10;;;;;;;5.63;4.10;;;17.70;99.90;;;;;;5050575;28;20463;-71
2023/08/21 04:10:36;;;;;;;5.23;4.20;;;17.60;99.90;;;;;;5051044;28;20196;-71
2023/08/21 04:13:02;;;;;;;4.20;3.50;;;17.60;99.90;;;;;;5050127;28;20170;-71
2023/08/21 04:15:28;;;;;;;9.23;4.37;;;17.70;99.90;;;;;;5050755;28;20696;-71
2023/08/21 04:17:53;;;;;;;4.10;3.67;;;17.70;99.90;;;;;;5050500;28;20194;-71
2023/08/21 04:20:22;;;;;;;3.73;3.30;;;17.70;99.90;;;;;;5051087;28;20408;-71
2023/08/21 04:22:49;;;;;;;7.83;3.70;;;17.70;99.90;;;;;;5050925;28;20193;-71
2023/08/21 04:25:15;;;;;;;4.53;3.80;;;17.70;99.90;;;;;;5050797;28;20415;-71
2023/08/21 04:27:41;;;;;;;4.30;3.87;;;17.70;99.90;;;;;;5050127;28;20459;-71
2023/08/21 04:30:08;;;;;;;8.73;3.47;;;17.70;99.90;;;;;;5051167;28;20436;-71
2023/08/21 04:32:34;;;;;;;7.37;3.60;;;17.60;99.90;;;;;;5051039;28;20502;-71
2023/08/21 04:35:00;;;;;;;5.20;3.40;;;17.60;99.90;;;;;;5050917;28;20528;-71
2023/08/21 04:37:26;;;;;;;8.73;3.97;;;17.60;99.90;;;;;;5050563;28;20208;-71
2023/08/21 04:39:52;;;;;;;5.37;3.33;;;17.60;99.90;;;;;;5049715;28;20412;-71
2023/08/21 04:42:18;;;;;;;5.97;3.80;;;17.70;99.90;;;;;;5050095;28;20936;-71
2023/08/21 04:44:43;;;;;;;6.07;4.13;;;17.70;99.90;;;;;;5050480;28;20446;-72
2023/08/21 04:47:26;;;;;;;3.87;3.50;;;17.70;99.90;;;;;;5050409;28;20198;-72
2023/08/21 04:49:53;;;;;;;3.77;3.20;;;17.70;99.90;;;;;;5050035;28;20662;-72
2023/08/21 04:52:23;;;;;;;5.30;3.37;;;17.70;99.90;;;;;;5052128;28;20412;-71
2023/08/21 04:54:49;;;;;;;5.77;3.90;;;17.70;99.90;;;;;;5060400;28;20413;-72
2023/08/21 04:57:15;;;;;;;5.37;3.87;;;17.70;99.90;;;;;;5056532;28;20905;-72
2023/08/21 04:59:41;;;;;;;6.60;3.97;;;17.70;99.90;;;;;;5055830;28;20426;-71
2023/08/21 05:02:07;;;;;;;3.53;3.20;;;17.80;99.90;;;;;;5053393;28;20503;-71
2023/08/21 05:04:34;;;;;;;6.03;3.90;;;17.80;99.90;;;;;;5050686;28;20177;-71
2023/08/21 05:07:00;;;;;;;6.53;3.30;;;17.80;99.90;;;;;;5048177;28;20174;-72
2023/08/21 05:09:26;;;;;;;5.37;4.13;;;17.80;99.90;;;;;;5050417;28;20416;-71
2023/08/21 05:11:51;;;;;;;5.50;3.33;;;17.90;99.90;;;;;;5050031;28;20425;-71
2023/08/21 05:14:19;;;;;;;4.60;3.90;;;17.90;99.90;;;;;;5050032;28;20174;-71
2023/08/21 05:16:46;;;;;;;7.20;4.10;;;17.90;99.90;;;;;;5048789;28;20536;-71
2023/08/21 05:19:12;;;;;;;5.40;3.70;;;17.90;99.90;;;;;;5048889;28;20431;-71
2023/08/21 05:21:38;;;;;;;6.30;4.10;;;18.00;99.90;;;;;;5049878;28;20412;-71
2023/08/21 05:24:04;;;;;;;6.63;3.33;;;17.90;99.90;;;;;;5049859;28;20466;-72
2023/08/21 05:26:29;;;;;;;6.17;3.87;;;17.90;99.90;;;;;;5048729;28;20240;-72
2023/08/21 05:28:55;;;;;;;5.93;4.30;;;18.00;99.90;;;;;;5042230;28;20213;-72
2023/08/21 05:31:21;;;;;;;5.40;4.13;;;18.00;99.90;;;;;;5048366;28;20194;-71
2023/08/21 05:33:46;;;;;;;9.43;4.70;;;18.10;99.90;;;;;;5049308;28;20204;-72
2023/08/21 05:36:12;;;;;;;4.13;3.73;;;18.20;99.90;;;;;;5047910;28;20317;-72
2023/08/21 05:38:38;;;;;;;5.53;3.60;;;18.30;99.90;;;;;;5048667;28;20723;-71
2023/08/21 05:41:04;;;;;;;6.60;3.77;;;18.40;99.90;;;;;;5043220;28;20261;-72
2023/08/21 05:43:30;;;;;;;6.10;4.17;;;18.40;99.90;;;;;;5048411;28;20236;-72
2023/08/21 05:45:56;;;;;;;6.87;3.77;;;18.50;99.90;;;;;;5048990;28;20269;-72
2023/08/21 05:48:22;;;;;;;8.20;4.40;;;18.60;99.90;;;;;;5048557;28;20551;-72
2023/08/21 05:50:51;;;;;;;8.60;3.87;;;18.70;99.90;;;;;;5048962;28;20559;-72
2023/08/21 05:53:17;;;;;;;6.40;3.80;;;18.80;99.90;;;;;;5049123;28;20178;-72
2023/08/21 05:55:43;;;;;;;7.60;4.20;;;18.90;99.90;;;;;;5047585;28;20740;-71
2023/08/21 05:58:08;;;;;;;6.67;4.37;;;19.10;99.90;;;;;;5048391;28;20240;-71
2023/08/21 06:00:35;;;;;;;7.87;3.67;;;19.20;99.90;;;;;;5047763;28;20174;-71
2023/08/21 06:03:01;;;;;;;8.07;3.63;;;19.40;99.90;;;;;;5045314;28;20205;-71
2023/08/21 06:05:26;;;;;;;5.80;3.80;;;19.40;99.90;;;;;;5042770;28;20988;-72
2023/08/21 06:07:52;;;;;;;6.77;3.60;;;19.40;99.90;;;;;;5048220;28;20201;-71
2023/08/21 06:10:18;;;;;;;4.10;3.70;;;19.40;99.90;;;;;;5039874;28;20178;-71
2023/08/21 06:12:44;;;;;;;5.03;3.10;;;19.40;99.90;;;;;;5045160;28;20674;-71
2023/08/21 06:15:10;;;;;;;9.10;4.23;;;19.40;99.90;;;;;;5040519;28;20261;-71
2023/08/21 06:17:36;;;;;;;8.67;3.70;;;19.40;99.90;;;;;;5040198;28;20198;-71
2023/08/21 06:20:05;;;;;;;5.80;2.77;;;19.50;99.90;;;;;;5042359;28;20853;-71
2023/08/21 06:22:32;;;;;;;4.60;3.30;;;19.60;99.90;;;;;;5047341;28;20464;-71
2023/08/21 06:24:58;;;;;;;5.23;3.70;;;19.70;99.90;;;;;;5046445;28;20430;-71
2023/08/21 06:27:23;;;;;;;7.33;3.63;;;19.70;99.90;;;;;;5044449;28;20460;-71
2023/08/21 06:29:49;;;;;;;4.80;3.80;;;19.80;99.90;;;;;;5046893;28;20169;-71
2023/08/21 06:32:15;;;;;;;5.83;3.67;;;19.80;99.90;;;;;;5046740;28;20182;-71
2023/08/21 06:34:40;;;;;;;8.33;3.83;;;19.90;99.90;;;;;;5046246;28;20643;-71
2023/08/21 06:37:06;;;;;;;6.40;3.20;;;20.10;99.90;;;;;;5046181;28;20189;-71
2023/08/21 06:39:32;;;;;;;7.37;3.17;;;20.20;99.90;;;;;;5046861;28;20188;-71
2023/08/21 06:41:57;;;;;;;5.90;3.30;;;20.20;99.90;;;;;;5042479;28;20833;-71
2023/08/21 06:44:23;;;;;;;4.77;3.20;;;20.30;99.90;;;;;;5041391;28;20177;-71
2023/08/21 06:46:49;;;;;;;3.40;2.70;;;20.40;99.90;;;;;;5047176;28;20176;-71
2023/08/21 06:49:14;;;;;;;7.53;3.23;;;20.50;99.90;;;;;;5037237;28;20217;-71
2023/08/21 06:51:40;;;;;;;7.57;4.00;;;20.60;99.90;;;;;;5038510;28;20176;-70
2023/08/21 06:54:06;;;;;;;4.10;3.20;;;20.80;99.90;;;;;;5034708;28;20760;-71
2023/08/21 06:56:32;;;;;;;5.43;3.37;;;20.80;99.90;;;;;;5027432;28;20600;-71
2023/08/21 06:58:58;;;;;;;6.97;2.90;;;20.80;99.90;;;;;;5026408;28;20202;-71
2023/08/21 07:01:23;;;;;;;6.27;2.93;;;20.90;99.90;;;;;;5016801;28;20465;-71
2023/08/21 07:03:49;;;;;;;4.20;3.20;;;20.90;99.90;;;;;;5047587;28;20632;-71
2023/08/21 07:06:15;;;;;;;6.37;3.33;;;20.90;99.90;;;;;;5046650;28;20248;-71
2023/08/21 07:08:40;;;;;;;4.13;3.57;;;20.90;99.90;;;;;;5047105;28;20278;-71
2023/08/21 07:11:08;;;;;;;5.20;3.50;;;20.90;99.90;;;;;;5048010;28;20228;-71
2023/08/21 07:13:34;;;;;;;6.90;3.93;;;20.80;99.90;;;;;;5047792;28;20180;-71
2023/08/21 07:16:02;;;;;;;10.60;4.00;;;20.80;99.90;;;;;;5038748;28;20410;-71
2023/08/21 07:18:29;;;;;;;7.00;3.37;;;20.80;99.90;;;;;;5035674;28;20460;-71
2023/08/21 07:20:55;;;;;;;5.00;3.70;;;20.80;99.90;;;;;;5032050;28;20491;-71
2023/08/21 07:23:21;;;;;;;5.90;3.30;;;20.80;99.90;;;;;;5027661;28;20409;-71
2023/08/21 07:25:46;;;;;;;7.17;3.60;;;20.80;99.90;;;;;;5026610;28;20187;-71
2023/08/21 07:28:12;;;;;;;5.57;3.90;;;20.80;99.90;;;;;;5033282;28;20232;-71
2023/08/21 07:30:38;;;;;;;4.70;3.33;;;20.80;99.90;;;;;;5047713;28;20253;-71
2023/08/21 07:33:05;;;;;;;5.87;3.40;;;20.80;99.90;;;;;;5047160;28;20174;-71
2023/08/21 07:35:32;;;;;;;6.23;3.73;;;20.80;99.90;;;;;;5047529;28;20820;-71
2023/08/21 07:37:57;;;;;;;6.53;3.63;;;20.90;99.90;;;;;;5046770;28;20428;-71
2023/08/21 07:40:23;;;;;;;4.70;3.57;;;20.90;99.90;;;;;;5046559;28;20453;-71
2023/08/21 07:42:49;;;;;;;7.13;3.60;;;21.00;99.90;;;;;;5047666;28;20239;-71
2023/08/21 07:45:15;;;;;;;5.03;3.20;;;21.00;99.90;;;;;;5047085;28;20213;-71
2023/08/21 07:47:40;;;;;;;7.03;3.20;;;21.10;99.90;;;;;;5027081;28;20258;-71
2023/08/21 07:50:07;;;;;;;4.33;3.70;;;21.10;99.90;;;;;;5027695;28;20182;-71
2023/08/21 07:52:34;;;;;;;7.50;3.40;;;21.20;99.90;;;;;;5027870;28;20643;-71
2023/08/21 07:55:00;;;;;;;5.53;4.07;;;21.20;99.90;;;;;;5027184;28;20405;-71
2023/08/21 07:57:27;;;;;;;5.93;3.67;;;21.30;99.90;;;;;;5026121;28;20506;-71
2023/08/21 07:59:52;;;;;;;6.77;4.10;;;21.30;99.90;;;;;;5027060;28;20495;-71
2023/08/21 08:02:18;;;;;;;11.27;4.20;;;21.40;99.90;;;;;;5029751;28;20447;-71
2023/08/21 08:04:44;;;;;;;5.53;3.70;;;21.40;99.90;;;;;;5047162;28;20242;-71
2023/08/21 08:07:09;;;;;;;7.13;3.93;;;21.40;99.90;;;;;;5047122;28;20194;-71
2023/08/21 08:09:36;;;;;;;4.70;3.27;;;21.40;99.90;;;;;;5048242;28;20182;-71
2023/08/21 08:12:01;;;;;;;6.47;4.20;;;21.40;99.90;;;;;;5048756;28;20170;-71
2023/08/21 08:14:27;;;;;;;6.20;3.77;;;21.50;99.90;;;;;;5052904;28;20465;-71
2023/08/21 08:16:53;;;;;;;6.23;3.70;;;21.60;99.90;;;;;;5050770;28;20170;-71
2023/08/21 08:19:18;;;;;;;5.63;3.77;;;21.70;99.90;;;;;;5050412;28;20193;-71
2023/08/21 08:21:44;;;;;;;4.50;3.57;;;21.80;99.90;;;;;;5050382;28;20174;-71
2023/08/21 08:24:10;;;;;;;7.20;4.30;;;21.90;99.90;;;;;;5047478;28;20181;-71
2023/08/21 08:26:36;;;;;;;8.40;4.20;;;22.00;99.90;;;;;;5046174;28;20178;-71
2023/08/21 08:29:01;;;;;;;8.87;4.60;;;22.10;99.90;;;;;;5046744;28;20213;-71
2023/08/21 08:31:27;;;;;;;6.70;4.00;;;22.10;99.90;;;;;;5047009;28;20193;-71
2023/08/21 08:33:54;;;;;;;6.00;4.00;;;22.20;99.90;;;;;;5050026;28;20177;-71
2023/08/21 08:36:20;;;;;;;6.43;4.00;;;22.30;99.90;;;;;;5049411;28;20181;-70
2023/08/21 08:38:46;;;;;;;9.50;4.77;;;22.30;99.90;;;;;;5050018;28;20508;-70
2023/08/21 08:41:25;;;;;;;7.43;4.73;;;22.40;99.90;;;;;;5050932;28;20964;-71
2023/08/21 08:43:51;;;;;;;7.83;4.30;;;22.50;99.90;;;;;;5050820;28;20673;-70
2023/08/21 08:46:17;;;;;;;4.43;3.63;;;22.50;99.90;;;;;;5048908;28;20515;-70
2023/08/21 08:48:43;;;;;;;7.13;4.33;;;22.50;99.90;;;;;;5049723;28;20490;-71
2023/08/21 08:51:09;;;;;;;10.37;3.87;;;22.50;99.90;;;;;;5050810;28;20404;-70
2023/08/21 08:53:36;;;;;;;6.13;4.77;;;22.50;99.90;;;;;;5050346;28;20188;-71
2023/08/21 08:56:02;;;;;;;4.33;3.23;;;22.60;99.90;;;;;;5048786;28;20474;-70
2023/08/21 08:58:29;;;;;;;9.27;4.67;;;22.60;99.90;;;;;;5048851;28;20436;-70
2023/08/21 09:00:54;;;;;;;6.30;3.83;;;22.60;99.90;;;;;;5049158;28;20174;-71
2023/08/21 09:03:20;;;;;;;17.53;4.90;;;22.60;99.90;;;;;;5050151;28;20440;-70
2023/08/21 09:05:48;;;;;;;4.90;3.70;;;22.70;99.90;;;;;;5048595;28;20274;-71
2023/08/21 09:08:14;;;;;;;6.87;3.70;;;22.80;99.90;;;;;;5049781;28;20202;-71
2023/08/21 09:10:42;;;;;;;6.33;4.53;;;22.90;99.90;;;;;;5050112;28;20415;-71
2023/08/21 09:13:18;;;;;;;9.07;4.10;;;23.00;99.90;;;;;;5050442;28;20932;-71
2023/08/21 09:15:47;;;;;;;13.37;4.20;;;23.10;99.90;;;;;;5049516;28;20420;-71
2023/08/21 09:18:14;;;;;;;6.67;3.70;;;23.20;99.90;;;;;;5049360;28;20933;-71
2023/08/21 09:20:40;;;;;;;6.10;4.47;;;23.30;99.90;;;;;;5049766;28;20412;-71
2023/08/21 09:23:07;;;;;;;11.13;4.33;;;23.40;99.90;;;;;;5050066;28;20415;-71
2023/08/21 09:25:40;;;;;;;6.40;3.60;;;23.50;99.90;;;;;;5049430;28;20421;-71
2023/08/21 09:28:08;;;;;;;4.87;3.77;;;23.60;99.90;;;;;;5047890;28;20452;-71
2023/08/21 09:30:54;;;;;;;5.97;3.07;;;23.70;99.90;;;;;;5049622;28;20462;-70
2023/08/21 09:33:22;;;;;;;6.67;3.47;;;23.80;99.90;;;;;;5049503;28;20450;-71
2023/08/21 09:35:48;;;;;;;4.17;3.00;;;23.90;99.90;;;;;;5048148;28;20427;-70
2023/08/21 09:38:14;;;;;;;6.50;4.23;;;24.00;99.90;;;;;;5048779;28;20420;-71
2023/08/21 09:40:41;;;;;;;7.67;3.53;;;24.10;99.90;;;;;;5049709;28;20441;-70
2023/08/21 09:43:10;;;;;;;4.37;3.50;;;24.20;99.90;;;;;;5048374;28;20627;-71
2023/08/21 09:45:35;;;;;;;5.77;3.70;;;24.30;99.90;;;;;;5048277;28;20411;-70
2023/08/21 09:48:02;;;;;;;5.10;3.87;;;24.40;99.90;;;;;;5048872;28;20452;-71
2023/08/21 09:50:29;;;;;;;5.00;3.37;;;24.50;99.90;;;;;;5047853;28;20177;-71
2023/08/21 09:52:56;;;;;;;9.23;4.13;;;24.60;99.90;;;;;;5049498;28;20884;-71
2023/08/21 09:55:22;;;;;;;5.30;3.50;;;24.70;99.90;;;;;;5048636;28;20441;-71
2023/08/21 09:57:56;;;;;;;7.60;3.30;;;24.80;99.90;;;;;;5048674;28;20839;-70
2023/08/21 10:00:22;;;;;;;10.57;4.27;;;24.90;99.90;;;;;;5045331;28;20817;-71
2023/08/21 10:02:51;;;;;;;7.10;4.90;;;25.00;99.90;;;;;;5049708;28;20443;-71
2023/08/21 10:05:17;;;;;;;5.20;4.00;;;25.00;99.90;;;;;;5048318;28;20189;-70
2023/08/21 10:07:47;;;;;;;7.53;3.77;;;25.10;99.90;;;;;;5048522;28;21163;-70
2023/08/21 10:10:13;;;;;;;6.90;4.20;;;25.20;99.90;;;;;;5048824;28;20547;-70
2023/08/21 10:12:39;;;;;;;4.33;3.40;;;25.20;99.90;;;;;;5049284;28;20408;-71
2023/08/21 10:15:09;;;;;;;5.37;4.10;;;25.30;99.90;;;;;;5048701;28;20407;-70
2023/08/21 10:17:36;;;;;;;7.63;3.77;;;25.30;99.90;;;;;;5048410;28;20259;-70
2023/08/21 10:20:06;;;;;;;4.20;3.10;;;25.30;99.90;;;;;;5048878;28;20408;-70
2023/08/21 10:22:48;;;;;;;7.80;3.20;;;25.30;99.90;;;;;;5048868;28;20413;-70
2023/08/21 10:25:22;;;;;;;6.97;3.40;;;25.40;99.90;;;;;;5048315;28;20457;-70
2023/08/21 10:27:51;;;;;;;4.07;3.50;;;25.50;99.90;;;;;;5047832;28;20968;-71
2023/08/21 10:30:28;;;;;;;6.00;3.70;;;25.60;99.90;;;;;;5048470;28;20454;-70
2023/08/21 10:32:58;;;;;;;4.30;3.23;;;25.60;99.90;;;;;;5047140;28;20439;-70
2023/08/21 10:35:28;;;;;;;4.30;3.70;;;25.70;99.90;;;;;;5048409;28;20400;-71
2023/08/21 10:38:28;;;;;;;6.30;3.80;;;25.70;99.90;;;;;;5047597;28;20424;-70
2023/08/21 10:41:05;;;;;;;5.40;4.30;;;25.70;99.90;;;;;;5006115;28;20426;-70
2023/08/21 10:43:40;;;;;;;6.70;4.70;;;25.60;99.90;;;;;;5042926;28;20450;-70
2023/08/21 10:46:07;;;;;;;8.60;4.87;;;25.60;99.90;;;;;;5046565;28;20412;-70
2023/08/21 10:48:32;;;;;;;5.73;4.60;;;25.60;99.90;;;;;;5063269;28;20470;-70
2023/08/21 10:51:03;;;;;;;5.20;4.60;;;25.60;99.90;;;;;;5048207;28;20491;-70
2023/08/21 10:53:28;;;;;;;6.53;3.90;;;25.60;99.90;;;;;;5063702;28;20713;-70
2023/08/21 10:55:54;;;;;;;7.00;3.57;;;25.50;99.90;;;;;;5047850;28;20414;-70
2023/08/21 10:58:20;;;;;;;6.50;3.77;;;25.50;99.90;;;;;;5047279;28;20197;-70
2023/08/21 11:00:46;;;;;;;5.60;4.80;;;25.50;99.90;;;;;;5047601;28;20416;-71
2023/08/21 11:03:12;;;;;;;6.83;3.77;;;25.50;99.90;;;;;;5046490;28;20408;-70
2023/08/21 11:05:37;;;;;;;4.40;3.97;;;25.50;99.90;;;;;;5047721;28;20192;-70
2023/08/21 11:08:03;;;;;;;5.20;3.67;;;25.60;99.90;;;;;;5046105;28;20213;-70
2023/08/21 11:10:31;;;;;;;5.53;4.00;;;25.70;99.90;;;;;;5047582;28;20174;-70
2023/08/21 11:13:02;;;;;;;6.67;4.93;;;25.70;99.90;;;;;;5048197;28;20206;-70
2023/08/21 11:15:29;;;;;;;6.77;4.27;;;25.80;99.90;;;;;;5047504;28;20408;-70
2023/08/21 11:18:02;;;;;;;6.90;4.17;;;25.90;99.90;;;;;;5046051;28;20913;-70
2023/08/21 11:20:36;;;;;;;5.50;3.83;;;26.00;99.90;;;;;;5047987;28;20404;-70
2023/08/21 11:23:07;;;;;;;8.93;4.00;;;26.10;99.90;;;;;;5048022;28;20421;-70
2023/08/21 11:25:40;;;;;;;4.83;3.80;;;26.20;99.90;;;;;;5047843;28;20413;-70
2023/08/21 11:28:06;;;;;;;6.70;4.70;;;26.20;99.90;;;;;;5047033;28;20946;-70
2023/08/21 11:30:34;;;;;;;5.47;3.43;;;26.40;99.90;;;;;;5046834;28;20532;-71
2023/08/21 11:33:12;;;;;;;8.43;5.00;;;26.60;99.90;;;;;;5048043;28;20672;-70
2023/08/21 11:35:38;;;;;;;6.90;4.47;;;26.50;99.90;;;;;;5048616;28;20408;-70
2023/08/21 11:38:05;;;;;;;7.90;4.10;;;26.60;99.90;;;;;;5055461;28;21038;-70
2023/08/21 11:40:34;;;;;;;5.57;5.00;;;26.70;99.90;;;;;;5053831;28;20432;-70
2023/08/21 11:43:01;;;;;;;6.57;4.50;;;26.70;99.90;;;;;;5051927;28;20412;-71
2023/08/21 11:45:27;;;;;;;6.07;3.70;;;26.60;99.90;;;;;;5050295;28;20416;-71
2023/08/21 11:47:56;;;;;;;4.20;3.80;;;26.60;99.90;;;;;;5044663;28;20479;-71
2023/08/21 11:50:22;;;;;;;6.90;4.97;;;26.60;99.90;;;;;;5043517;28;20185;-71
2023/08/21 11:52:52;;;;;;;7.90;4.20;;;26.60;99.90;;;;;;5040944;28;20420;-71
2023/08/21 11:55:17;;;;;;;7.83;4.87;;;26.50;99.90;;;;;;5045589;28;20513;-71
2023/08/21 11:57:50;;;;;;;6.10;4.23;;;26.60;99.90;;;;;;5046482;28;20479;-71
2023/08/21 12:00:18;;;;;;;4.73;4.33;;;26.50;99.90;;;;;;5045558;28;20197;-71
2023/08/21 12:02:57;;;;;;;4.23;3.67;;;26.60;99.90;;;;;;5047043;28;20416;-71
2023/08/21 12:05:23;;;;;;;7.40;4.30;;;26.60;99.90;;;;;;5050249;28;20436;-71
2023/08/21 12:07:49;;;;;;;5.00;4.40;;;26.70;99.90;;;;;;5047431;28;20464;-71
2023/08/21 12:10:21;;;;;;;4.70;3.43;;;26.80;99.90;;;;;;5051044;28;20182;-70
2023/08/21 12:12:47;;;;;;;4.57;4.17;;;26.90;99.90;;;;;;5051047;28;20889;-71
2023/08/21 12:15:13;;;;;;;4.50;3.63;;;27.00;99.90;;;;;;5050467;28;20481;-71
2023/08/21 12:17:38;;;;;;;4.03;3.10;;;27.10;99.90;;;;;;5048580;28;20212;-71
2023/08/21 12:20:10;;;;;;;5.80;3.50;;;27.10;99.90;;;;;;5050852;28;20647;-71
2023/08/21 12:22:37;;;;;;;5.67;4.47;;;27.10;99.90;;;;;;5050830;28;20208;-70
2023/08/21 12:25:04;;;;;;;4.90;4.27;;;27.20;99.90;;;;;;5050395;28;20542;-70
2023/08/21 12:27:30;;;;;;;5.63;3.80;;;27.20;99.90;;;;;;5049947;28;20490;-71
2023/08/21 12:29:56;;;;;;;8.60;4.40;;;27.20;99.90;;;;;;5050480;28;20420;-71
2023/08/21 12:32:22;;;;;;;5.83;3.17;;;27.10;99.90;;;;;;5050549;28;20437;-70
2023/08/21 12:34:47;;;;;;;7.77;3.60;;;27.10;99.90;;;;;;5049839;28;20646;-71
2023/08/21 12:37:13;;;;;;;7.50;3.40;;;27.10;99.90;;;;;;5049760;28;20260;-71
2023/08/21 12:39:39;;;;;;;5.33;2.57;;;27.00;99.90;;;;;;5050723;28;20408;-71
2023/08/21 12:42:05;;;;;;;6.07;3.30;;;27.00;99.90;;;;;;5050053;28;20706;-71
2023/08/21 12:44:30;;;;;;;4.20;2.73;;;27.10;99.90;;;;;;5050503;28;20593;-70